Terminal Aerodrome Forecast
Issued by NWS

Home | Current Version | Previous Version | Text Only | Print | Product List | Glossary On
Versions: 1 2 3 4 5 6 7 8 9 10 11 12 13 14 15 16 17 18 19 20 21 22 23 24 25 26 27 28 29 30 31 32 33 34 35 36 37 38 39 40 41 42 43 44 45 46 47 48 49 50
640
FTAK31 PAFA 221451 AAA
TAFAOM
TAF AMD
PAOM 221451Z 2215/2312 25024G31KT 6SM BR OVC018
      TEMPO 2215/2219 1 1/2SM -SN BR
     FM230200 28009KT 4SM BR SCT004 BKN015
     FM230800 26005KT P6SM SCT015 BKN035 OVC090=

USA.gov is the U.S. government's official web portal to all federal, state and local government web resources and services.